createdAt,value
2022-08-02T00:01:20.558Z,1.37
2022-08-02T00:04:08.676Z,1.00
2022-08-02T00:07:02.514Z,1.20
2022-08-02T00:09:52.864Z,1.20
2022-08-02T00:12:44.391Z,1.50
2022-08-02T00:15:44.595Z,1.40
2022-08-02T00:18:37.416Z,1.50
2022-08-02T00:21:31.093Z,1.20
2022-08-02T00:24:36.660Z,1.40
2022-08-02T00:27:40.860Z,1.27
2022-08-02T00:30:31.433Z,1.40
2022-08-02T00:34:05.650Z,1.03
2022-08-02T00:36:40.999Z,1.13
2022-08-02T00:39:34.677Z,1.23
2022-08-02T00:42:32.001Z,1.10
2022-08-02T00:45:22.445Z,1.00
2022-08-02T00:48:43.416Z,1.20
2022-08-02T00:51:31.804Z,1.27
2022-08-02T00:54:21.862Z,1.53
2022-08-02T00:57:12.975Z,1.00
2022-08-02T01:00:01.550Z,1.27
2022-08-02T01:02:49.949Z,1.00
2022-08-02T01:06:02.317Z,0.90
2022-08-02T01:09:00.308Z,1.30
2022-08-02T01:11:50.572Z,1.20
2022-08-02T01:14:44.243Z,1.00
2022-08-02T01:18:03.768Z,0.90
2022-08-02T01:21:23.174Z,0.87
2022-08-02T01:24:40.494Z,1.00
2022-08-02T03:34:48.114Z,2.00
2022-08-02T03:37:37.041Z,1.30
2022-08-02T03:40:26.212Z,1.80
2022-08-02T03:43:14.560Z,1.30
2022-08-02T03:46:09.689Z,1.30
2022-08-02T03:48:58.401Z,1.60
2022-08-02T03:51:47.199Z,1.73
2022-08-02T03:54:45.395Z,1.80
2022-08-02T03:57:33.750Z,1.37
2022-08-02T04:00:26.472Z,1.70
2022-08-02T04:03:32.331Z,1.40
2022-08-02T04:09:19.778Z,1.80
2022-08-02T04:12:07.790Z,1.20
2022-08-02T04:15:05.411Z,1.20
2022-08-02T04:17:59.307Z,2.00
2022-08-02T04:21:18.951Z,1.37
2022-08-02T04:24:08.656Z,0.90
2022-08-02T04:27:19.340Z,1.40
2022-08-02T04:30:13.626Z,1.43
2022-08-02T04:33:01.646Z,1.50
2022-08-02T04:35:59.502Z,1.43
2022-08-02T04:38:54.316Z,1.30
2022-08-02T04:41:48.464Z,1.48
2022-08-02T04:44:41.351Z,1.53
2022-08-02T04:47:54.446Z,1.30
2022-08-02T04:50:54.783Z,1.20
2022-08-02T04:53:42.529Z,1.53
2022-08-02T04:56:30.266Z,1.53
2022-08-02T04:59:18.002Z,1.40
2022-08-02T05:02:06.162Z,1.50
2022-08-02T05:04:59.509Z,1.33
2022-08-02T05:08:02.522Z,1.47
2022-08-02T05:10:50.236Z,1.50
2022-08-02T05:13:58.530Z,1.73
2022-08-02T05:16:51.608Z,1.87
2022-08-02T05:19:44.771Z,1.43
2022-08-02T05:22:52.775Z,1.60
2022-08-02T05:25:40.558Z,1.50
2022-08-02T05:28:28.450Z,1.30
2022-08-02T05:31:22.619Z,1.57
2022-08-02T05:34:13.861Z,1.90
2022-08-02T05:37:04.227Z,1.60
2022-08-02T05:39:57.411Z,1.60
2022-08-02T05:42:59.543Z,1.50
2022-08-02T05:49:05.003Z,1.40
2022-08-02T05:52:31.827Z,1.67
2022-08-02T05:55:34.893Z,2.00
2022-08-02T05:58:42.992Z,1.83
2022-08-02T06:05:07.859Z,2.40
2022-08-02T06:07:58.601Z,1.87
2022-08-02T06:12:11.124Z,2.07
2022-08-02T06:15:01.146Z,2.90
2022-08-02T06:17:53.083Z,2.53
2022-08-02T06:20:50.092Z,2.97
2022-08-02T06:23:58.943Z,2.47
2022-08-02T06:26:54.949Z,2.70
2022-08-02T06:29:49.641Z,3.17
2022-08-02T06:32:44.643Z,2.20
2022-08-02T06:36:07.849Z,1.80
2022-08-02T06:39:27.080Z,2.93
2022-08-02T06:42:30.621Z,3.10
2022-08-02T06:45:28.045Z,2.90
2022-08-02T06:48:15.806Z,3.20
2022-08-02T06:51:05.162Z,3.60
2022-08-02T06:53:57.272Z,3.40
2022-08-02T06:56:47.420Z,3.30
2022-08-02T06:59:36.559Z,2.43
2022-08-02T07:02:24.491Z,4.33
2022-08-02T07:05:14.802Z,4.40
2022-08-02T07:08:03.400Z,4.90
2022-08-02T07:10:53.936Z,5.00
2022-08-02T07:13:45.661Z,4.03
2022-08-02T07:16:35.817Z,4.27
2022-08-02T07:19:27.378Z,4.50
2022-08-02T07:22:27.439Z,3.37
2022-08-02T07:25:17.766Z,5.13
2022-08-02T07:28:24.054Z,4.93
2022-08-02T07:31:22.245Z,5.97
2022-08-02T07:34:09.662Z,6.00
2022-08-02T07:37:00.474Z,5.40
2022-08-02T07:39:49.121Z,6.57
2022-08-02T07:42:38.271Z,5.13
2022-08-02T07:45:29.813Z,6.50
2022-08-02T07:48:28.499Z,5.83
2022-08-02T07:51:22.924Z,6.27
2022-08-02T07:54:17.003Z,6.00
2022-08-02T07:57:04.890Z,6.22
2022-08-02T07:59:53.051Z,6.73
2022-08-02T08:02:44.762Z,5.83
2022-08-02T08:05:32.229Z,6.67
2022-08-02T08:08:22.998Z,6.87
2022-08-02T08:11:13.630Z,5.73
2022-08-02T08:14:06.767Z,5.23
2022-08-02T08:16:54.947Z,5.50
2022-08-02T08:19:51.163Z,4.83
2022-08-02T08:22:42.583Z,5.40
2022-08-02T08:25:30.507Z,6.80
2022-08-02T08:28:18.107Z,6.97
2022-08-02T08:31:07.262Z,6.87
2022-08-02T08:33:56.227Z,6.80
2022-08-02T08:36:44.065Z,7.00
2022-08-02T08:39:31.699Z,5.97
2022-08-02T08:42:21.169Z,6.07
2022-08-02T08:45:09.660Z,7.33
2022-08-02T08:48:28.887Z,6.37
2022-08-02T08:51:22.864Z,6.10
2022-08-02T08:54:16.742Z,6.70
2022-08-02T08:57:06.131Z,6.37
2022-08-02T08:59:53.644Z,6.90
2022-08-02T09:02:44.801Z,5.53
2022-08-02T09:05:35.697Z,6.05
2022-08-02T09:08:25.491Z,5.73
2022-08-02T09:11:19.584Z,7.38
2022-08-02T09:14:07.154Z,6.32
2022-08-02T09:17:07.942Z,6.95
2022-08-02T09:20:11.923Z,6.63
2022-08-02T09:23:13.050Z,7.35
2022-08-02T09:26:07.267Z,7.30
2022-08-02T09:29:04.221Z,7.13
2022-08-02T09:31:52.458Z,9.43
2022-08-02T09:34:51.944Z,9.68
2022-08-02T09:37:39.602Z,8.60
2022-08-02T09:40:39.907Z,9.55
2022-08-02T09:44:03.560Z,9.38
2022-08-02T09:46:51.045Z,10.30
2022-08-02T09:49:52.582Z,8.90
2022-08-02T09:52:45.633Z,7.93
2022-08-02T09:55:33.342Z,7.90
2022-08-02T09:58:22.150Z,6.90
2022-08-02T10:01:13.680Z,6.47
2022-08-02T10:04:14.494Z,5.97
2022-08-02T10:07:08.217Z,5.53
2022-08-02T10:09:56.649Z,5.38
2022-08-02T10:12:44.610Z,6.18
2022-08-02T10:15:32.795Z,4.85
2022-08-02T10:18:38.349Z,5.47
2022-08-02T10:21:48.233Z,6.32
2022-08-02T10:24:38.180Z,5.93
2022-08-02T10:28:04.251Z,5.70
2022-08-02T10:30:50.911Z,5.85
2022-08-02T10:33:39.755Z,5.43
2022-08-02T10:36:31.677Z,5.57
2022-08-02T10:39:20.322Z,5.47
2022-08-02T10:42:11.717Z,6.25
2022-08-02T10:45:12.299Z,5.60
2022-08-02T10:48:14.752Z,6.15
2022-08-02T10:51:03.786Z,6.03
2022-08-02T10:54:10.912Z,5.28
2022-08-02T10:56:59.777Z,5.07
2022-08-02T10:59:54.117Z,4.93
2022-08-02T11:02:45.067Z,4.97
2022-08-02T11:06:34.660Z,4.85
2022-08-02T11:09:33.384Z,5.53
2022-08-02T11:12:21.693Z,5.43
2022-08-02T11:15:12.946Z,4.30
2022-08-02T11:18:01.579Z,3.45
2022-08-02T11:21:30.649Z,4.18
2022-08-02T11:24:42.092Z,3.30
2022-08-02T11:27:33.671Z,4.00
2022-08-02T11:30:26.857Z,3.60
2022-08-02T11:33:40.293Z,4.28
2022-08-02T11:36:28.105Z,4.80
2022-08-02T11:39:21.490Z,3.95
2022-08-02T11:42:12.201Z,4.50
2022-08-02T11:45:03.081Z,4.50
2022-08-02T11:47:54.564Z,4.53
2022-08-02T11:50:47.135Z,4.38
2022-08-02T11:53:57.600Z,5.05
2022-08-02T11:56:47.593Z,4.35
2022-08-02T11:59:39.123Z,4.80
2022-08-02T12:02:28.953Z,5.15
2022-08-02T12:05:24.657Z,5.00
2022-08-02T12:08:26.069Z,3.70
2022-08-02T12:11:22.214Z,3.60
2022-08-02T12:14:16.395Z,3.83
2022-08-02T12:17:22.330Z,3.97
2022-08-02T12:20:11.724Z,3.72
2022-08-02T12:23:03.155Z,3.85
2022-08-02T12:26:17.315Z,3.75
2022-08-02T12:29:04.954Z,4.78
2022-08-02T12:31:57.198Z,3.60
2022-08-02T12:35:00.463Z,3.30
2022-08-02T12:37:51.603Z,2.75
2022-08-02T12:40:44.342Z,2.13
2022-08-02T12:43:32.421Z,2.13
2022-08-02T12:46:24.961Z,2.42
2022-08-02T12:49:20.238Z,2.25
2022-08-02T12:52:24.315Z,2.10
2022-08-02T12:55:25.918Z,2.08
2022-08-02T12:58:50.680Z,2.15
2022-08-02T13:01:40.641Z,1.83
2022-08-02T13:04:30.890Z,2.17
2022-08-02T13:07:20.786Z,1.77
2022-08-02T13:10:11.645Z,2.47
2022-08-02T13:13:01.638Z,2.10
2022-08-02T13:15:51.385Z,1.55
2022-08-02T13:18:43.302Z,1.60
2022-08-02T13:22:02.612Z,1.88
2022-08-02T13:24:56.172Z,1.50
2022-08-02T13:27:44.546Z,1.73
2022-08-02T13:30:40.265Z,1.70
2022-08-02T13:33:29.872Z,1.80
2022-08-02T13:36:17.844Z,1.90
2022-08-02T13:39:07.506Z,1.20
2022-08-02T13:41:56.977Z,1.50
2022-08-02T13:44:44.679Z,1.80
2022-08-02T13:47:57.353Z,1.67
2022-08-02T13:50:45.265Z,1.90
2022-08-02T14:50:49.712Z,2.55
2022-08-02T14:53:38.040Z,2.38
2022-08-02T14:56:37.616Z,2.97
2022-08-02T14:59:31.238Z,2.67
2022-08-02T15:02:27.476Z,2.42
2022-08-02T15:05:16.082Z,2.67
2022-08-02T15:08:06.311Z,2.17
2022-08-02T15:10:53.798Z,2.47
2022-08-02T15:13:41.219Z,2.63
2022-08-02T15:16:55.447Z,2.55
2022-08-02T15:19:59.360Z,2.67
2022-08-02T15:22:54.257Z,2.65
2022-08-02T15:25:42.284Z,2.80
2022-08-02T15:28:31.502Z,2.20
2022-08-02T15:31:22.270Z,2.45
2022-08-02T15:34:24.015Z,2.50
2022-08-02T15:37:11.959Z,2.30
2022-08-02T15:40:12.765Z,2.53
2022-08-02T15:43:05.866Z,2.53
2022-08-02T15:45:59.721Z,2.22
2022-08-02T15:48:49.701Z,2.13
2022-08-02T15:51:38.171Z,2.10
2022-08-02T15:54:25.783Z,2.00
2022-08-02T15:57:18.990Z,1.80
2022-08-02T16:00:14.069Z,1.90
2022-08-02T16:03:10.187Z,1.92
2022-08-02T16:05:57.878Z,2.28
2022-08-02T16:08:53.509Z,1.70
2022-08-02T16:11:43.716Z,3.33
2022-08-02T16:14:31.746Z,2.22
2022-08-02T16:17:49.291Z,1.60
2022-08-02T16:20:34.913Z,2.25
2022-08-02T16:24:01.274Z,1.85
2022-08-02T16:26:36.659Z,1.77
2022-08-02T16:29:25.306Z,2.13
2022-08-02T16:32:15.191Z,2.67
2022-08-02T16:35:08.446Z,2.63
2022-08-02T16:37:57.188Z,2.03
2022-08-02T16:40:44.842Z,3.05
2022-08-02T16:43:42.119Z,2.65
2022-08-02T16:46:34.960Z,2.63
2022-08-02T16:50:03.968Z,1.90
2022-08-02T16:52:34.500Z,1.70
2022-08-02T16:55:25.570Z,1.90
2022-08-02T16:58:13.341Z,2.30
2022-08-02T17:01:05.946Z,2.10
2022-08-02T17:03:55.953Z,2.08
2022-08-02T17:10:04.585Z,2.53
2022-08-02T17:13:11.327Z,2.83
2022-08-02T17:16:16.187Z,2.65
2022-08-02T17:19:13.437Z,1.92
2022-08-02T17:22:07.417Z,2.15
2022-08-02T17:24:59.356Z,2.85
2022-08-02T17:27:56.711Z,2.17
2022-08-02T17:30:52.995Z,1.65
2022-08-02T17:33:41.736Z,1.50
2022-08-02T17:36:41.774Z,1.90
2022-08-02T17:39:34.273Z,1.92
2022-08-02T17:42:49.804Z,1.73
2022-08-02T17:46:00.742Z,1.35
2022-08-02T17:49:09.373Z,1.98
2022-08-02T17:52:48.402Z,1.25
2022-08-02T17:55:25.836Z,1.60
2022-08-02T17:58:16.035Z,1.27
2022-08-02T18:01:24.129Z,1.60
2022-08-02T18:04:17.392Z,1.50
2022-08-02T18:07:25.073Z,1.30
2022-08-02T18:10:13.475Z,2.28
2022-08-02T18:13:05.416Z,1.48
2022-08-02T18:15:59.396Z,2.05
2022-08-02T18:18:52.095Z,1.60
2022-08-02T18:21:39.976Z,1.40
2022-08-02T18:24:27.770Z,1.73
2022-08-02T18:27:19.116Z,1.92
2022-08-02T18:30:13.252Z,1.75
2022-08-02T18:33:57.984Z,1.98
2022-08-02T18:36:29.635Z,1.45
2022-08-02T18:39:20.088Z,1.70
2022-08-02T18:42:13.965Z,1.30
2022-08-02T19:50:56.725Z,1.53
2022-08-02T19:53:51.252Z,1.57
2022-08-02T19:56:51.760Z,1.53
2022-08-02T19:59:55.810Z,1.27
2022-08-02T20:02:48.718Z,1.30
2022-08-02T20:05:39.593Z,1.50
2022-08-02T20:08:40.636Z,1.37
2022-08-02T20:11:40.176Z,1.23
2022-08-02T20:14:40.758Z,1.58
2022-08-02T20:17:51.068Z,1.07
2022-08-02T20:20:44.569Z,1.87
2022-08-02T20:27:59.785Z,1.92
2022-08-02T20:31:08.787Z,1.30
2022-08-02T20:34:48.560Z,1.50
2022-08-02T20:54:24.553Z,1.30
2022-08-02T20:57:14.915Z,1.33
2022-08-02T21:00:06.299Z,1.73
2022-08-02T21:02:54.811Z,1.20
2022-08-02T21:06:03.335Z,1.13
2022-08-02T21:09:00.877Z,1.60
2022-08-02T21:11:58.949Z,1.80
2022-08-02T21:14:54.959Z,1.50
2022-08-02T21:17:48.913Z,1.00
2022-08-02T21:20:52.980Z,1.63
2022-08-02T21:23:48.901Z,2.40
2022-08-02T21:26:43.290Z,1.60
2022-08-02T21:29:36.858Z,2.35
2022-08-02T21:32:30.331Z,1.47
2022-08-02T21:35:27.007Z,1.70
2022-08-02T21:38:35.972Z,1.77
2022-08-02T21:41:24.819Z,1.60
2022-08-02T21:44:27.811Z,1.70
2022-08-02T21:47:27.277Z,1.40
2022-08-02T22:58:36.734Z,1.48
2022-08-02T23:52:07.215Z,1.90
2022-08-02T23:54:54.793Z,2.00
2022-08-02T23:57:42.222Z,1.70
